createdAt,value
2022-09-11T00:01:41.324Z,97310.85
2022-09-11T00:04:11.009Z,97305.44
2022-09-11T00:06:39.668Z,97306.34
2022-09-11T00:09:08.269Z,97307.22
2022-09-11T00:11:41.222Z,97305.17
2022-09-11T00:14:13.930Z,97305.91
2022-09-11T00:16:45.281Z,97311.41
2022-09-11T00:19:19.288Z,97315.73
2022-09-11T00:21:50.034Z,97310.05
2022-09-11T00:24:18.224Z,97306.48
2022-09-11T00:26:48.017Z,97296.15
2022-09-11T00:29:15.820Z,97296.23
2022-09-11T00:31:43.773Z,97301.34
2022-09-11T00:34:11.639Z,97304.04
2022-09-11T00:36:41.837Z,97306.40
2022-09-11T00:39:12.170Z,97308.05
2022-09-11T00:41:44.826Z,97310.27
2022-09-11T00:44:21.510Z,97315.09
2022-09-11T00:46:59.490Z,97315.30
2022-09-11T00:49:32.724Z,97313.11
2022-09-11T00:52:10.449Z,97311.29
2022-09-11T00:54:49.729Z,97308.69
2022-09-11T00:57:21.809Z,97305.77
2022-09-11T00:59:52.954Z,97303.30
2022-09-11T01:02:27.341Z,97303.84
2022-09-11T01:04:57.231Z,97310.67
2022-09-11T01:07:27.219Z,97316.45
2022-09-11T01:09:55.983Z,97312.87
2022-09-11T01:13:02.963Z,97308.64
2022-09-11T01:15:40.478Z,97305.80
2022-09-11T01:18:46.605Z,97301.98
2022-09-11T01:21:46.274Z,97303.73
2022-09-11T01:24:48.969Z,97304.20
2022-09-11T01:27:43.453Z,97307.33
2022-09-11T01:30:33.074Z,97306.35
2022-09-11T01:33:24.514Z,97309.04
2022-09-11T01:36:04.072Z,97303.75
2022-09-11T01:38:39.314Z,97300.65
2022-09-11T01:41:25.825Z,97298.34
2022-09-11T01:44:07.033Z,97293.08
2022-09-11T01:46:42.881Z,97290.13
2022-09-11T01:49:25.854Z,97287.03
2022-09-11T01:51:59.455Z,97288.00
2022-09-11T01:54:33.351Z,97292.86
2022-09-11T01:57:07.842Z,97294.01
2022-09-11T01:59:44.604Z,97282.85
2022-09-11T02:02:17.160Z,97284.39
2022-09-11T02:04:52.421Z,97286.16
2022-09-11T02:07:25.567Z,97284.20
2022-09-11T02:10:01.522Z,97277.84
2022-09-11T02:12:34.798Z,97274.88
2022-09-11T02:15:02.781Z,97273.58
2022-09-11T02:17:54.162Z,97274.54
2022-09-11T02:20:26.716Z,97270.16
2022-09-11T02:22:54.958Z,97275.02
2022-09-11T02:25:25.315Z,97277.38
2022-09-11T02:27:56.642Z,97275.49
2022-09-11T02:30:24.913Z,97274.98
2022-09-11T02:32:56.038Z,97272.48
2022-09-11T02:35:32.788Z,97277.11
2022-09-11T02:38:14.906Z,97280.92
2022-09-11T02:40:53.254Z,97282.27
2022-09-11T02:43:39.559Z,97280.07
2022-09-11T02:46:19.803Z,97279.11
2022-09-11T02:49:06.989Z,97277.34
2022-09-11T02:51:46.195Z,97268.86
2022-09-11T02:54:21.901Z,97265.96
2022-09-11T02:57:34.920Z,97263.79
2022-09-11T03:00:07.131Z,97256.77
2022-09-11T03:02:39.674Z,97256.17
2022-09-11T03:05:08.479Z,97258.91
2022-09-11T03:07:36.349Z,97255.49
2022-09-11T03:10:04.494Z,97252.75
2022-09-11T03:12:32.681Z,97252.48
2022-09-11T03:15:00.536Z,97252.05
2022-09-11T03:17:28.859Z,97251.90
2022-09-11T03:19:57.099Z,97255.14
2022-09-11T03:22:25.413Z,97259.91
2022-09-11T03:24:53.896Z,97256.45
2022-09-11T03:27:23.909Z,97256.02
2022-09-11T03:29:52.572Z,97254.88
2022-09-11T03:32:22.906Z,97258.23
2022-09-11T03:34:50.727Z,97258.08
2022-09-11T03:37:18.593Z,97258.34
2022-09-11T03:39:48.437Z,97253.82
2022-09-11T03:42:16.477Z,97254.23
2022-09-11T03:44:45.627Z,97255.59
2022-09-11T03:47:13.973Z,97253.02
2022-09-11T03:49:41.856Z,97255.35
2022-09-11T03:52:09.745Z,97263.31
2022-09-11T03:54:37.631Z,97265.14
2022-09-11T03:57:07.178Z,97268.84
2022-09-11T03:59:39.208Z,97268.73
2022-09-11T04:02:07.066Z,97271.97
2022-09-11T04:04:36.989Z,97274.12
2022-09-11T04:07:05.347Z,97271.54
2022-09-11T04:09:33.632Z,97274.55
2022-09-11T04:12:03.077Z,97273.54
2022-09-11T04:14:30.954Z,97273.98
2022-09-11T04:16:59.657Z,97277.56
2022-09-11T04:19:29.491Z,97278.30
2022-09-11T04:21:57.710Z,97278.34
2022-09-11T04:24:25.722Z,97278.95
2022-09-11T04:26:57.325Z,97275.41
2022-09-11T04:29:28.905Z,97273.44
2022-09-11T04:31:57.880Z,97273.66
2022-09-11T04:34:28.680Z,97272.79
2022-09-11T04:36:56.963Z,97273.98
2022-09-11T04:39:25.249Z,97273.56
2022-09-11T04:41:53.136Z,97277.83
2022-09-11T04:44:21.471Z,97278.73
2022-09-11T04:46:49.392Z,97280.64
2022-09-11T04:49:18.756Z,97284.48
2022-09-11T04:51:47.398Z,97285.57
2022-09-11T04:54:18.246Z,97286.94
2022-09-11T04:56:46.825Z,97286.48
2022-09-11T04:59:18.051Z,97284.39
2022-09-11T05:01:50.346Z,97286.90
2022-09-11T05:04:25.985Z,97289.59
2022-09-11T05:06:55.943Z,97284.16
2022-09-11T05:09:27.406Z,97278.63
2022-09-11T05:11:57.073Z,97260.25
2022-09-11T05:14:27.365Z,97241.84
2022-09-11T05:16:56.072Z,97233.41
2022-09-11T05:19:25.687Z,97223.54
2022-09-11T05:21:53.899Z,97215.30
2022-09-11T05:24:21.782Z,97205.95
2022-09-11T05:26:50.093Z,97203.55
2022-09-11T05:29:19.804Z,97201.80
2022-09-11T05:31:53.288Z,97204.05
2022-09-11T05:34:22.474Z,97207.58
2022-09-11T05:36:52.355Z,97206.91
2022-09-11T05:39:20.685Z,97204.13
2022-09-11T05:41:51.976Z,97204.80
2022-09-11T05:44:20.749Z,97199.81
2022-09-11T05:46:48.862Z,97191.21
2022-09-11T05:49:16.710Z,97192.01
2022-09-11T05:51:44.576Z,97191.12
2022-09-11T05:54:12.397Z,97189.73
2022-09-11T05:56:41.728Z,97190.26
2022-09-11T05:59:16.481Z,97186.08
2022-09-11T06:01:47.729Z,97184.14
2022-09-11T06:04:19.937Z,97178.23
2022-09-11T06:06:49.726Z,97172.09
2022-09-11T06:09:19.094Z,97174.44
2022-09-11T06:11:47.076Z,97173.36
2022-09-11T06:14:15.007Z,97168.66
2022-09-11T06:16:44.901Z,97167.81
2022-09-11T06:19:16.910Z,97165.83
2022-09-11T06:21:45.436Z,97168.20
2022-09-11T06:24:32.400Z,97167.80
2022-09-11T06:27:00.886Z,97165.05
2022-09-11T06:29:32.096Z,97161.67
2022-09-11T06:32:01.165Z,97164.52
2022-09-11T06:34:31.752Z,97161.56
2022-09-11T06:37:02.439Z,97162.50
2022-09-11T06:39:30.259Z,97158.63
2022-09-11T06:41:59.786Z,97158.88
2022-09-11T06:44:31.333Z,97157.33
2022-09-11T06:47:01.231Z,97153.79
2022-09-11T06:49:29.149Z,97154.77
2022-09-11T06:52:15.722Z,97155.92
2022-09-11T06:54:50.687Z,97155.08
2022-09-11T06:57:19.942Z,97154.08
2022-09-11T06:59:47.926Z,97152.39
2022-09-11T07:02:16.882Z,97148.52
2022-09-11T07:04:46.866Z,97151.20
2022-09-11T07:07:15.175Z,97143.28
2022-09-11T07:09:43.517Z,97140.55
2022-09-11T07:12:12.184Z,97141.26
2022-09-11T07:14:41.520Z,97144.11
2022-09-11T07:17:16.332Z,97143.35
2022-09-11T07:19:45.708Z,97140.20
2022-09-11T07:22:15.130Z,97142.22
2022-09-11T07:24:43.030Z,97139.52
2022-09-11T07:27:13.960Z,97137.06
2022-09-11T07:29:42.271Z,97140.08
2022-09-11T07:32:10.597Z,97151.40
2022-09-11T07:34:39.675Z,97152.84
2022-09-11T07:37:09.882Z,97150.27
2022-09-11T07:39:38.611Z,97151.23
2022-09-11T07:42:10.941Z,97155.20
2022-09-11T07:44:39.054Z,97153.93
2022-09-11T07:47:06.973Z,97153.11
2022-09-11T07:49:39.296Z,97148.52
2022-09-11T07:52:07.577Z,97145.02
2022-09-11T07:54:42.906Z,97142.83
2022-09-11T07:57:13.110Z,97142.11
2022-09-11T07:59:41.479Z,97146.16
2022-09-11T08:02:11.777Z,97143.39
2022-09-11T08:04:40.213Z,97142.67
2022-09-11T08:07:08.164Z,97141.25
2022-09-11T08:09:36.423Z,97143.27
2022-09-11T08:12:05.916Z,97146.10
2022-09-11T08:14:37.046Z,97149.73
2022-09-11T08:17:09.910Z,97146.07
2022-09-11T08:19:39.002Z,97148.92
2022-09-11T08:22:07.004Z,97141.52
2022-09-11T08:24:39.290Z,97142.31
2022-09-11T08:27:07.554Z,97141.41
2022-09-11T08:29:38.317Z,97140.74
2022-09-11T08:32:06.769Z,97145.61
2022-09-11T08:34:34.788Z,97149.53
2022-09-11T08:37:03.179Z,97149.46
2022-09-11T08:39:33.630Z,97158.09
2022-09-11T08:42:09.472Z,97156.52
2022-09-11T08:44:47.886Z,97155.13
2022-09-11T08:47:31.293Z,97149.73
2022-09-11T08:50:07.750Z,97146.77
2022-09-11T08:52:36.813Z,97144.89
2022-09-11T08:55:06.521Z,97147.52
2022-09-11T08:58:03.887Z,97153.16
2022-09-11T09:00:44.353Z,97157.81
2022-09-11T09:03:31.455Z,97159.30
2022-09-11T09:06:25.940Z,97160.98
2022-09-11T09:09:18.712Z,97162.92
2022-09-11T09:11:59.578Z,97162.14
2022-09-11T09:14:50.662Z,97161.97
2022-09-11T09:17:25.130Z,97157.34
2022-09-11T09:20:01.363Z,97156.98
2022-09-11T09:22:48.393Z,97158.16
2022-09-11T09:25:22.696Z,97155.52
2022-09-11T09:27:54.683Z,97157.83
2022-09-11T09:30:27.391Z,97155.19
2022-09-11T09:33:05.322Z,97153.48
2022-09-11T09:35:41.746Z,97155.34
2022-09-11T09:38:14.101Z,97152.24
2022-09-11T09:41:05.526Z,97154.99
2022-09-11T09:43:34.006Z,97153.14
2022-09-11T09:46:02.094Z,97148.02
2022-09-11T09:48:37.099Z,97150.54
2022-09-11T09:51:05.465Z,97150.77
2022-09-11T09:53:46.706Z,97152.23
2022-09-11T09:56:17.732Z,97152.11
2022-09-11T09:58:56.560Z,97153.34
2022-09-11T10:01:49.550Z,97152.57
2022-09-11T10:04:22.367Z,97151.71
2022-09-11T10:06:53.100Z,97152.44
2022-09-11T10:09:29.776Z,97147.69
2022-09-11T10:12:07.495Z,97143.40
2022-09-11T10:14:52.589Z,97138.30
2022-09-11T10:17:21.734Z,97136.19
2022-09-11T10:19:52.002Z,97133.17
2022-09-11T10:22:30.292Z,97127.92
2022-09-11T10:25:09.674Z,97123.19
2022-09-11T10:27:44.256Z,97118.94
2022-09-11T10:30:36.591Z,97116.02
2022-09-11T10:33:14.172Z,97115.52
2022-09-11T10:35:51.471Z,97114.46
2022-09-11T10:38:20.788Z,97109.79
2022-09-11T10:41:08.510Z,97112.13
2022-09-11T10:44:04.294Z,97114.70
2022-09-11T10:46:43.050Z,97114.66
2022-09-11T10:49:23.453Z,97114.77
2022-09-11T10:52:05.497Z,97111.65
2022-09-11T10:55:09.267Z,97103.89
2022-09-11T10:57:37.138Z,97108.30
2022-09-11T11:00:21.410Z,97102.17
2022-09-11T11:02:56.224Z,97104.73
2022-09-11T11:05:44.712Z,97109.80
2022-09-11T11:08:44.522Z,97112.61
2022-09-11T11:11:18.735Z,97114.40
2022-09-11T11:14:23.990Z,97117.56
2022-09-11T11:17:21.590Z,97111.14
2022-09-11T11:20:17.634Z,97119.52
2022-09-11T11:22:54.402Z,97117.34
2022-09-11T11:25:50.438Z,97114.64
2022-09-11T11:28:44.431Z,97114.52
2022-09-11T11:31:44.442Z,97111.60
2022-09-11T11:34:18.383Z,97113.21
2022-09-11T11:36:48.871Z,97115.09
2022-09-11T11:39:23.668Z,97115.58
2022-09-11T11:42:26.881Z,97117.27
2022-09-11T11:45:00.630Z,97116.85
2022-09-11T11:47:38.251Z,97114.62
2022-09-11T11:50:12.240Z,97106.77
2022-09-11T11:53:12.467Z,97108.42
2022-09-11T11:55:44.705Z,97103.45
2022-09-11T11:58:42.292Z,97099.27
2022-09-11T12:01:31.961Z,97097.28
2022-09-11T12:04:37.713Z,97100.80
2022-09-11T12:07:14.153Z,97103.42
2022-09-11T12:09:49.409Z,97097.23
2022-09-11T12:12:19.366Z,97099.81
2022-09-11T12:14:56.928Z,97105.06
2022-09-11T12:17:30.862Z,97103.84
2022-09-11T12:20:11.053Z,97100.23
2022-09-11T12:22:40.644Z,97098.31
2022-09-11T12:25:23.594Z,97095.42
2022-09-11T12:28:14.901Z,97086.97
2022-09-11T12:31:13.172Z,97082.65
2022-09-11T12:33:47.336Z,97081.23
2022-09-11T12:36:19.709Z,97079.55
2022-09-11T12:38:54.085Z,97084.51
2022-09-11T12:41:31.983Z,97082.80
2022-09-11T12:44:01.315Z,97082.21
2022-09-11T12:46:29.189Z,97084.27
2022-09-11T12:49:20.960Z,97081.84
2022-09-11T12:51:56.090Z,97073.27
2022-09-11T12:54:42.381Z,97072.46
2022-09-11T12:57:25.018Z,97074.91
2022-09-11T12:59:59.544Z,97072.55
2022-09-11T13:02:30.282Z,97084.98
2022-09-11T13:04:58.221Z,97080.07
2022-09-11T13:07:36.853Z,97072.67
2022-09-11T13:10:09.555Z,97064.43
2022-09-11T13:12:50.202Z,97058.36
2022-09-11T13:15:38.020Z,97064.79
2022-09-11T13:18:35.590Z,97058.92
2022-09-11T13:21:06.471Z,97057.35
2022-09-11T13:23:34.546Z,97054.64
2022-09-11T13:26:06.399Z,97055.23
2022-09-11T13:28:45.509Z,97059.00
2022-09-11T13:31:27.193Z,97061.98
2022-09-11T13:33:55.316Z,97065.09
2022-09-11T13:36:24.995Z,97065.98
2022-09-11T13:38:58.282Z,97060.67
2022-09-11T13:41:29.969Z,97065.03
2022-09-11T13:44:00.962Z,97068.02
2022-09-11T13:46:31.743Z,97067.05
2022-09-11T13:49:24.890Z,97063.13
2022-09-11T13:51:53.303Z,97060.05
2022-09-11T13:54:31.568Z,97058.68
2022-09-11T13:57:03.197Z,97058.42
2022-09-11T13:59:44.788Z,97057.36
2022-09-11T14:02:45.145Z,97060.42
2022-09-11T14:05:26.756Z,97059.83
2022-09-11T14:07:59.928Z,97055.46
2022-09-11T14:10:34.413Z,97059.20
2022-09-11T14:13:14.697Z,97058.77
2022-09-11T14:15:50.598Z,97054.93
2022-09-11T14:18:31.970Z,97055.85
2022-09-11T14:21:06.503Z,97058.47
2022-09-11T14:23:43.210Z,97057.71
2022-09-11T14:26:18.487Z,97054.09
2022-09-11T14:28:59.721Z,97058.30
2022-09-11T14:31:30.555Z,97060.70
2022-09-11T14:34:16.042Z,97051.11
2022-09-11T14:36:59.009Z,97045.72
2022-09-11T14:39:59.470Z,97041.69
2022-09-11T14:42:30.243Z,97040.92
2022-09-11T14:44:58.238Z,97037.63
2022-09-11T14:47:29.080Z,97041.58
2022-09-11T14:50:00.282Z,97042.67
2022-09-11T14:52:29.777Z,97038.96
2022-09-11T14:54:57.951Z,97033.67
2022-09-11T14:57:32.642Z,97029.25
2022-09-11T15:00:00.795Z,97030.35
2022-09-11T15:02:29.389Z,97025.03
2022-09-11T15:04:58.417Z,97024.02
2022-09-11T15:07:27.969Z,97028.91
2022-09-11T15:09:55.875Z,97031.87
2022-09-11T15:12:23.945Z,97029.42
2022-09-11T15:14:57.637Z,97034.00
2022-09-11T15:17:31.949Z,97032.84
2022-09-11T15:20:01.039Z,97031.74
2022-09-11T15:22:29.133Z,97033.14
2022-09-11T15:24:59.106Z,97035.27
2022-09-11T15:27:26.991Z,97030.52
2022-09-11T15:29:55.862Z,97026.29
2022-09-11T15:32:23.822Z,97028.90
2022-09-11T15:34:52.210Z,97037.36
2022-09-11T15:37:20.454Z,97037.98
2022-09-11T15:39:50.561Z,97045.45
2022-09-11T15:42:19.308Z,97045.98
2022-09-11T15:44:48.252Z,97052.92
2022-09-11T15:47:16.745Z,97049.05
2022-09-11T15:49:44.711Z,97054.05
2022-09-11T15:52:12.600Z,97051.51
2022-09-11T15:54:41.193Z,97052.48
2022-09-11T15:57:09.192Z,97050.69
2022-09-11T15:59:37.250Z,97053.18
2022-09-11T16:02:05.208Z,97056.01
2022-09-11T16:04:33.453Z,97058.13
2022-09-11T16:07:01.477Z,97057.76
2022-09-11T16:09:31.744Z,97060.11
2022-09-11T16:12:01.882Z,97061.22
2022-09-11T16:14:33.298Z,97063.72
2022-09-11T16:17:03.142Z,97060.76
2022-09-11T16:19:32.091Z,97059.35
2022-09-11T16:22:02.326Z,97062.92
2022-09-11T16:24:32.988Z,97068.01
2022-09-11T16:27:01.822Z,97068.73
2022-09-11T16:29:51.189Z,97070.14
2022-09-11T16:32:28.711Z,97067.20
2022-09-11T16:34:59.674Z,97069.12
2022-09-11T16:37:28.589Z,97067.56
2022-09-11T16:39:56.678Z,97064.56
2022-09-11T16:42:24.579Z,97068.05
2022-09-11T16:44:53.644Z,97064.16
2022-09-11T16:47:22.225Z,97062.75
2022-09-11T16:50:07.500Z,97064.41
2022-09-11T16:52:39.226Z,97066.88
2022-09-11T16:55:10.037Z,97068.63
2022-09-11T16:57:38.908Z,97071.12
2022-09-11T17:00:09.762Z,97075.34
2022-09-11T17:02:39.253Z,97074.64
2022-09-11T17:05:09.156Z,97076.59
2022-09-11T17:07:37.500Z,97082.17
2022-09-11T17:10:05.800Z,97081.45
2022-09-11T17:12:33.858Z,97080.46
2022-09-11T17:15:02.094Z,97079.09
2022-09-11T17:17:31.356Z,97076.39
2022-09-11T17:19:59.436Z,97077.30
2022-09-11T17:22:28.075Z,97077.58
2022-09-11T17:24:55.905Z,97082.25
2022-09-11T17:27:23.992Z,97083.48
2022-09-11T17:29:52.304Z,97088.77
2022-09-11T17:32:28.379Z,97094.75
2022-09-11T17:34:58.675Z,97100.18
2022-09-11T17:37:28.163Z,97102.64
2022-09-11T17:39:56.306Z,97108.81
2022-09-11T17:42:26.777Z,97108.27
2022-09-11T17:44:55.019Z,97113.55
2022-09-11T17:47:23.007Z,97118.45
2022-09-11T17:49:51.083Z,97123.24
2022-09-11T17:52:20.430Z,97130.58
2022-09-11T17:54:49.075Z,97133.63
2022-09-11T17:57:17.383Z,97137.48
2022-09-11T17:59:46.836Z,97136.05
2022-09-11T18:02:14.788Z,97136.98
2022-09-11T18:04:44.330Z,97138.39
2022-09-11T18:07:12.370Z,97141.67
2022-09-11T18:09:40.238Z,97140.34
2022-09-11T18:12:08.445Z,97142.88
2022-09-11T18:14:38.085Z,97140.14
2022-09-11T18:17:06.400Z,97139.52
2022-09-11T18:19:34.541Z,97137.55
2022-09-11T18:22:02.335Z,97136.08
2022-09-11T18:24:30.252Z,97138.63
2022-09-11T18:27:00.917Z,97137.30
2022-09-11T18:29:30.359Z,97138.59
2022-09-11T18:32:00.318Z,97142.89
2022-09-11T18:34:28.921Z,97141.16
2022-09-11T18:36:57.020Z,97139.41
2022-09-11T18:39:25.998Z,97136.59
2022-09-11T18:41:53.846Z,97136.27
2022-09-11T18:44:25.371Z,97140.86
2022-09-11T18:46:54.690Z,97142.42
2022-09-11T18:49:23.530Z,97143.27
2022-09-11T18:51:52.034Z,97142.80
2022-09-11T18:54:21.172Z,97135.75
2022-09-11T18:56:50.513Z,97136.48
2022-09-11T18:59:20.300Z,97140.30
2022-09-11T19:01:48.504Z,97147.36
2022-09-11T19:04:17.330Z,97154.13
2022-09-11T19:06:46.634Z,97160.34
2022-09-11T19:09:14.861Z,97164.38
2022-09-11T19:11:43.001Z,97163.88
2022-09-11T19:14:13.273Z,97159.67
2022-09-11T19:16:41.608Z,97159.58
2022-09-11T19:19:09.811Z,97156.42
2022-09-11T19:21:38.508Z,97151.31
2022-09-11T19:24:07.706Z,97151.29
2022-09-11T19:26:43.635Z,97154.71
2022-09-11T19:29:13.406Z,97151.36
2022-09-11T19:31:42.348Z,97152.66
2022-09-11T19:34:12.127Z,97158.16
2022-09-11T19:36:41.301Z,97156.62
2022-09-11T19:39:10.558Z,97154.82
2022-09-11T19:41:39.869Z,97152.38
2022-09-11T19:44:13.295Z,97149.14
2022-09-11T19:46:41.918Z,97151.96
2022-09-11T19:49:11.284Z,97150.96
2022-09-11T19:51:42.226Z,97155.34
2022-09-11T19:54:12.853Z,97157.14
2022-09-11T19:56:41.181Z,97156.72
2022-09-11T19:59:09.166Z,97156.20
2022-09-11T20:01:37.429Z,97153.99
2022-09-11T20:04:05.591Z,97153.51
2022-09-11T20:06:35.485Z,97157.70
2022-09-11T20:11:54.083Z,97179.01
2022-09-11T20:14:22.487Z,97182.08
2022-09-11T20:16:50.361Z,97184.02
2022-09-11T20:19:18.200Z,97183.68
2022-09-11T20:21:46.063Z,97179.80
2022-09-11T20:24:15.099Z,97178.89
2022-09-11T20:26:43.270Z,97179.97
2022-09-11T20:29:15.107Z,97189.06
2022-09-11T20:31:49.029Z,97189.06
2022-09-11T20:34:18.627Z,97188.83
2022-09-11T20:36:47.234Z,97184.02
2022-09-11T20:39:16.375Z,97181.42
2022-09-11T20:41:45.157Z,97184.36
2022-09-11T20:44:13.077Z,97186.60
2022-09-11T20:46:43.623Z,97186.30
2022-09-11T20:49:12.276Z,97181.75
2022-09-11T20:51:40.577Z,97183.19
2022-09-11T20:54:09.460Z,97184.77
2022-09-11T20:56:37.540Z,97189.86
2022-09-11T20:59:05.425Z,97187.59
2022-09-11T21:01:34.548Z,97178.98
2022-09-11T21:04:04.465Z,97180.85
2022-09-11T21:06:34.658Z,97182.35
2022-09-11T21:09:07.739Z,97182.98
2022-09-11T21:11:37.263Z,97183.66
2022-09-11T21:14:06.627Z,97187.56
2022-09-11T21:16:35.101Z,97188.75
2022-09-11T21:19:04.104Z,97192.54
2022-09-11T21:21:34.270Z,97195.83
2022-09-11T21:24:04.807Z,97191.83
2022-09-11T21:26:34.515Z,97188.70
2022-09-11T21:29:06.661Z,97184.25
2022-09-11T21:31:37.484Z,97184.83
2022-09-11T21:34:05.505Z,97184.91
2022-09-11T21:36:33.653Z,97189.48
2022-09-11T21:39:01.423Z,97190.89
2022-09-11T21:41:29.453Z,97192.11
2022-09-11T21:43:57.827Z,97191.02
2022-09-11T21:46:26.081Z,97193.27
2022-09-11T21:48:53.957Z,97194.89
2022-09-11T21:51:21.893Z,97194.29
2022-09-11T21:53:55.847Z,97195.02
2022-09-11T21:56:32.103Z,97197.63
2022-09-11T21:59:00.656Z,97200.42
2022-09-11T22:01:29.908Z,97201.67
2022-09-11T22:04:00.327Z,97201.55
2022-09-11T22:06:30.240Z,97203.13
2022-09-11T22:08:59.108Z,97201.56
2022-09-11T22:11:27.465Z,97197.36
2022-09-11T22:13:55.394Z,97198.14
2022-09-11T22:16:23.688Z,97194.25
2022-09-11T22:18:53.974Z,97190.90
2022-09-11T22:21:21.948Z,97188.45
2022-09-11T22:23:50.337Z,97187.37
2022-09-11T22:26:21.583Z,97186.58
2022-09-11T22:28:49.619Z,97186.41
2022-09-11T22:31:24.055Z,97181.91
2022-09-11T22:33:53.928Z,97182.18
2022-09-11T22:36:25.341Z,97181.92
2022-09-11T22:38:53.781Z,97184.35
2022-09-11T22:41:22.495Z,97187.54
2022-09-11T22:43:50.344Z,97183.43
2022-09-11T22:46:20.789Z,97180.83
2022-09-11T22:48:49.039Z,97181.20
2022-09-11T22:51:17.133Z,97181.41
2022-09-11T22:53:45.260Z,97185.90
2022-09-11T22:56:13.993Z,97189.61
2022-09-11T22:58:42.291Z,97186.80
2022-09-11T23:01:12.660Z,97183.40
2022-09-11T23:03:40.536Z,97181.98
2022-09-11T23:06:29.286Z,97179.88
2022-09-11T23:09:00.615Z,97182.20
2022-09-11T23:11:29.755Z,97176.71
2022-09-11T23:13:57.954Z,97175.81
2022-09-11T23:16:28.337Z,97175.66
2022-09-11T23:19:02.178Z,97176.52
2022-09-11T23:21:32.866Z,97178.27
2022-09-11T23:24:01.059Z,97180.86
2022-09-11T23:26:29.712Z,97181.16
2022-09-11T23:28:58.501Z,97183.55
2022-09-11T23:31:29.945Z,97180.66
2022-09-11T23:34:00.861Z,97176.88
2022-09-11T23:36:30.395Z,97177.38
2022-09-11T23:38:59.184Z,97177.09
2022-09-11T23:41:27.934Z,97174.86
2022-09-11T23:43:56.030Z,97173.87
2022-09-11T23:46:23.936Z,97173.81
2022-09-11T23:48:51.858Z,97175.54
2022-09-11T23:51:21.416Z,97176.70
2022-09-11T23:53:51.784Z,97178.02
2022-09-11T23:56:20.857Z,97175.85
2022-09-11T23:58:49.571Z,97174.23
